Skip Navigation LinksHome page > Weather > Current weather Skip Navigation Links

Current Weather

Marthas Vineyard, Vineyard Haven, Mass.

For information only: do not use for flight planning or navigation.
Latest weather
Observation time Sunday, August 25, 2019 12:53 AM EDT
Local time Sunday, August 25, 2019 1:40 AM EDT
Flight conditions Visual Meteorological Conditions
Winds
Wind direction Northeast (40°)
Wind speed 15 mph
Wind gusting to 22 mph
Visibility 10 mi.
Sky condition
Ceiling unlimited
Cloud layer few clouds 2,800 ft.
Cloud layer scattered clouds 4,200 ft.
Temperature 66°F
Dewpoint 56°F
Altimeter 30.25 in.Hg
Derived measurements
Relative humidity 70%
Density altitude 364 ft.
Sea-level pressure 30.25 in.Hg
Climate data
Temperature minimum, last 24 hours 60°F
Temperature maximum, last 24 hours 75°F
Remarks
Fully automated report.
Automated weather observing station with precipitation discriminator.
METAR KMVY 250453Z AUTO 04013G19KT 10SM FEW028 SCT042 19/13 A3025 RMK AO2 SLP243 T01890133 402390156

Settings

Location code

InnerDrive.Weather 4.0.6770.0 Release CLR 4.0.30319.42000
Copyright ©2018 Inner Drive Technology. All rights reserved. Portions Copyright ©1986-2018 David Braverman.

Find weather

Site navigation


Skip Navigation Links

Place info

Page info

PayPal - The safer, easier way to pay online!

Return home.

Copyright ©2019 Inner Drive Technology. Purveyors of fine, hand-crafted computer software. Page printed 2019-08-25T05:40:21 UTC.